sensor_id;sensor_type;location;lat;lon;timestamp;P1;durP1;ratioP1;P2;durP2;ratioP2
46815;SDS011;32787;53.316;8.670;2023-04-24T00:00:57;6.75;;;3.20;;
46815;SDS011;32787;53.316;8.670;2023-04-24T00:03:23;6.43;;;3.03;;
46815;SDS011;32787;53.316;8.670;2023-04-24T00:05:49;8.45;;;3.42;;
46815;SDS011;32787;53.316;8.670;2023-04-24T00:08:16;6.20;;;3.42;;
46815;SDS011;32787;53.316;8.670;2023-04-24T00:10:42;7.55;;;3.42;;
46815;SDS011;32787;53.316;8.670;2023-04-24T00:13:08;8.30;;;3.88;;
46815;SDS011;32787;53.316;8.670;2023-04-24T00:15:33;7.68;;;3.90;;
46815;SDS011;32787;53.316;8.670;2023-04-24T00:17:59;7.20;;;3.90;;
46815;SDS011;32787;53.316;8.670;2023-04-24T00:20:26;8.60;;;4.30;;
46815;SDS011;32787;53.316;8.670;2023-04-24T00:22:54;6.47;;;3.78;;
46815;SDS011;32787;53.316;8.670;2023-04-24T00:25:20;7.85;;;4.00;;
46815;SDS011;32787;53.316;8.670;2023-04-24T00:27:46;8.88;;;3.83;;
46815;SDS011;32787;53.316;8.670;2023-04-24T00:30:11;7.65;;;4.03;;
46815;SDS011;32787;53.316;8.670;2023-04-24T00:32:37;6.80;;;3.92;;
46815;SDS011;32787;53.316;8.670;2023-04-24T00:35:02;7.38;;;3.63;;
46815;SDS011;32787;53.316;8.670;2023-04-24T00:37:29;10.23;;;3.80;;
46815;SDS011;32787;53.316;8.670;2023-04-24T00:39:54;8.98;;;4.05;;
46815;SDS011;32787;53.316;8.670;2023-04-24T00:42:20;7.25;;;3.05;;
46815;SDS011;32787;53.316;8.670;2023-04-24T00:44:46;5.78;;;3.10;;
46815;SDS011;32787;53.316;8.670;2023-04-24T00:47:12;6.32;;;3.20;;
46815;SDS011;32787;53.316;8.670;2023-04-24T00:49:38;6.15;;;3.28;;
46815;SDS011;32787;53.316;8.670;2023-04-24T00:52:03;5.93;;;3.20;;
46815;SDS011;32787;53.316;8.670;2023-04-24T00:54:32;5.47;;;3.08;;
46815;SDS011;32787;53.316;8.670;2023-04-24T00:56:58;6.72;;;3.22;;
46815;SDS011;32787;53.316;8.670;2023-04-24T00:59:24;6.22;;;3.10;;
46815;SDS011;32787;53.316;8.670;2023-04-24T01:01:49;6.47;;;2.95;;
46815;SDS011;32787;53.316;8.670;2023-04-24T01:04:16;5.35;;;2.75;;
46815;SDS011;32787;53.316;8.670;2023-04-24T01:06:43;4.95;;;2.90;;
46815;SDS011;32787;53.316;8.670;2023-04-24T01:09:10;5.57;;;2.80;;
46815;SDS011;32787;53.316;8.670;2023-04-24T01:11:37;5.20;;;2.50;;
46815;SDS011;32787;53.316;8.670;2023-04-24T01:14:03;5.35;;;2.63;;
46815;SDS011;32787;53.316;8.670;2023-04-24T01:16:29;4.57;;;2.63;;
46815;SDS011;32787;53.316;8.670;2023-04-24T01:18:54;7.22;;;2.85;;
46815;SDS011;32787;53.316;8.670;2023-04-24T01:21:20;5.18;;;2.55;;
46815;SDS011;32787;53.316;8.670;2023-04-24T01:23:48;4.47;;;2.50;;
46815;SDS011;32787;53.316;8.670;2023-04-24T01:26:15;4.25;;;2.50;;
46815;SDS011;32787;53.316;8.670;2023-04-24T01:28:42;5.28;;;2.63;;
46815;SDS011;32787;53.316;8.670;2023-04-24T01:31:08;6.32;;;3.13;;
46815;SDS011;32787;53.316;8.670;2023-04-24T01:33:33;4.72;;;2.65;;
46815;SDS011;32787;53.316;8.670;2023-04-24T01:35:59;4.68;;;2.67;;
46815;SDS011;32787;53.316;8.670;2023-04-24T01:38:25;4.85;;;2.75;;
46815;SDS011;32787;53.316;8.670;2023-04-24T01:40:51;4.60;;;2.65;;
46815;SDS011;32787;53.316;8.670;2023-04-24T01:43:18;4.13;;;2.58;;
46815;SDS011;32787;53.316;8.670;2023-04-24T01:45:43;6.32;;;3.50;;
46815;SDS011;32787;53.316;8.670;2023-04-24T01:48:09;5.22;;;3.15;;
46815;SDS011;32787;53.316;8.670;2023-04-24T01:50:36;5.20;;;2.78;;
46815;SDS011;32787;53.316;8.670;2023-04-24T01:53:01;5.63;;;3.10;;
46815;SDS011;32787;53.316;8.670;2023-04-24T01:55:27;5.05;;;3.22;;
46815;SDS011;32787;53.316;8.670;2023-04-24T01:57:53;5.15;;;3.40;;
46815;SDS011;32787;53.316;8.670;2023-04-24T02:00:21;6.13;;;3.40;;
46815;SDS011;32787;53.316;8.670;2023-04-24T02:02:47;5.70;;;3.55;;
46815;SDS011;32787;53.316;8.670;2023-04-24T02:05:12;5.93;;;3.53;;
46815;SDS011;32787;53.316;8.670;2023-04-24T02:07:38;7.20;;;3.45;;
46815;SDS011;32787;53.316;8.670;2023-04-24T02:10:04;5.50;;;3.40;;
46815;SDS011;32787;53.316;8.670;2023-04-24T02:12:31;5.55;;;3.10;;
46815;SDS011;32787;53.316;8.670;2023-04-24T02:14:56;5.10;;;3.15;;
46815;SDS011;32787;53.316;8.670;2023-04-24T02:17:22;4.80;;;3.13;;
46815;SDS011;32787;53.316;8.670;2023-04-24T02:19:48;5.80;;;3.50;;
46815;SDS011;32787;53.316;8.670;2023-04-24T02:22:13;5.90;;;3.13;;
46815;SDS011;32787;53.316;8.670;2023-04-24T02:24:39;5.55;;;3.35;;
46815;SDS011;32787;53.316;8.670;2023-04-24T02:27:05;5.78;;;3.40;;
46815;SDS011;32787;53.316;8.670;2023-04-24T02:29:31;5.55;;;3.25;;
46815;SDS011;32787;53.316;8.670;2023-04-24T02:31:56;5.57;;;3.30;;
46815;SDS011;32787;53.316;8.670;2023-04-24T02:34:22;6.00;;;3.10;;
46815;SDS011;32787;53.316;8.670;2023-04-24T02:36:48;7.05;;;3.35;;
46815;SDS011;32787;53.316;8.670;2023-04-24T02:39:14;5.07;;;3.25;;
46815;SDS011;32787;53.316;8.670;2023-04-24T02:41:41;5.03;;;3.30;;
46815;SDS011;32787;53.316;8.670;2023-04-24T02:44:07;7.03;;;3.53;;
46815;SDS011;32787;53.316;8.670;2023-04-24T02:46:33;5.50;;;3.60;;
46815;SDS011;32787;53.316;8.670;2023-04-24T02:48:58;6.57;;;3.78;;
46815;SDS011;32787;53.316;8.670;2023-04-24T02:51:24;5.97;;;3.80;;
46815;SDS011;32787;53.316;8.670;2023-04-24T02:53:50;5.65;;;3.70;;
46815;SDS011;32787;53.316;8.670;2023-04-24T02:56:15;5.47;;;3.50;;
46815;SDS011;32787;53.316;8.670;2023-04-24T02:58:41;7.05;;;3.50;;
46815;SDS011;32787;53.316;8.670;2023-04-24T03:01:07;5.82;;;3.55;;
46815;SDS011;32787;53.316;8.670;2023-04-24T03:03:35;6.80;;;3.58;;
46815;SDS011;32787;53.316;8.670;2023-04-24T03:06:01;6.28;;;3.70;;
46815;SDS011;32787;53.316;8.670;2023-04-24T03:08:26;6.03;;;3.58;;
46815;SDS011;32787;53.316;8.670;2023-04-24T03:10:52;5.70;;;3.30;;
46815;SDS011;32787;53.316;8.670;2023-04-24T03:13:18;7.60;;;4.30;;
46815;SDS011;32787;53.316;8.670;2023-04-24T03:15:43;7.15;;;3.85;;
46815;SDS011;32787;53.316;8.670;2023-04-24T03:18:10;5.80;;;4.00;;
46815;SDS011;32787;53.316;8.670;2023-04-24T03:20:35;5.95;;;4.05;;
46815;SDS011;32787;53.316;8.670;2023-04-24T03:23:02;7.38;;;5.05;;
46815;SDS011;32787;53.316;8.670;2023-04-24T03:25:28;7.72;;;5.78;;
46815;SDS011;32787;53.316;8.670;2023-04-24T03:27:54;9.65;;;6.00;;
46815;SDS011;32787;53.316;8.670;2023-04-24T03:30:19;9.25;;;6.65;;
46815;SDS011;32787;53.316;8.670;2023-04-24T03:32:45;9.30;;;6.03;;
46815;SDS011;32787;53.316;8.670;2023-04-24T03:35:11;11.13;;;6.93;;
46815;SDS011;32787;53.316;8.670;2023-04-24T03:37:36;9.77;;;6.50;;
46815;SDS011;32787;53.316;8.670;2023-04-24T03:40:02;9.07;;;6.72;;
46815;SDS011;32787;53.316;8.670;2023-04-24T03:42:28;10.60;;;6.43;;
46815;SDS011;32787;53.316;8.670;2023-04-24T03:44:54;10.60;;;6.43;;
46815;SDS011;32787;53.316;8.670;2023-04-24T03:47:19;9.38;;;6.78;;
46815;SDS011;32787;53.316;8.670;2023-04-24T03:49:45;11.02;;;7.07;;
46815;SDS011;32787;53.316;8.670;2023-04-24T03:52:11;9.77;;;7.00;;
46815;SDS011;32787;53.316;8.670;2023-04-24T03:54:36;10.57;;;6.93;;
46815;SDS011;32787;53.316;8.670;2023-04-24T03:57:02;8.82;;;6.45;;
46815;SDS011;32787;53.316;8.670;2023-04-24T03:59:29;9.73;;;6.22;;
46815;SDS011;32787;53.316;8.670;2023-04-24T04:01:55;9.15;;;6.65;;
46815;SDS011;32787;53.316;8.670;2023-04-24T04:04:21;8.50;;;6.25;;
46815;SDS011;32787;53.316;8.670;2023-04-24T04:06:46;9.90;;;6.72;;
46815;SDS011;32787;53.316;8.670;2023-04-24T04:09:12;8.02;;;5.90;;
46815;SDS011;32787;53.316;8.670;2023-04-24T04:11:38;9.55;;;6.07;;
46815;SDS011;32787;53.316;8.670;2023-04-24T04:14:04;8.55;;;5.75;;
46815;SDS011;32787;53.316;8.670;2023-04-24T04:16:30;7.95;;;5.38;;
46815;SDS011;32787;53.316;8.670;2023-04-24T04:18:56;9.63;;;5.65;;
46815;SDS011;32787;53.316;8.670;2023-04-24T04:21:21;10.10;;;6.22;;
46815;SDS011;32787;53.316;8.670;2023-04-24T04:23:47;7.90;;;5.35;;
46815;SDS011;32787;53.316;8.670;2023-04-24T04:26:13;10.02;;;6.22;;
46815;SDS011;32787;53.316;8.670;2023-04-24T04:28:39;8.90;;;5.20;;
46815;SDS011;32787;53.316;8.670;2023-04-24T04:31:05;10.13;;;6.70;;
46815;SDS011;32787;53.316;8.670;2023-04-24T04:33:32;7.85;;;5.82;;
46815;SDS011;32787;53.316;8.670;2023-04-24T04:35:58;8.60;;;5.70;;
46815;SDS011;32787;53.316;8.670;2023-04-24T04:38:25;10.02;;;6.53;;
46815;SDS011;32787;53.316;8.670;2023-04-24T04:40:54;9.93;;;6.72;;
46815;SDS011;32787;53.316;8.670;2023-04-24T04:43:23;9.25;;;6.38;;
46815;SDS011;32787;53.316;8.670;2023-04-24T04:45:49;9.38;;;6.47;;
46815;SDS011;32787;53.316;8.670;2023-04-24T04:48:16;9.13;;;6.72;;
46815;SDS011;32787;53.316;8.670;2023-04-24T04:50:42;9.48;;;6.60;;
46815;SDS011;32787;53.316;8.670;2023-04-24T04:53:08;10.07;;;7.22;;
46815;SDS011;32787;53.316;8.670;2023-04-24T04:55:33;11.65;;;7.28;;
46815;SDS011;32787;53.316;8.670;2023-04-24T04:58:00;11.27;;;7.03;;
46815;SDS011;32787;53.316;8.670;2023-04-24T05:00:26;10.10;;;6.90;;
46815;SDS011;32787;53.316;8.670;2023-04-24T05:02:52;9.45;;;6.78;;
46815;SDS011;32787;53.316;8.670;2023-04-24T05:05:18;10.40;;;6.75;;
46815;SDS011;32787;53.316;8.670;2023-04-24T05:07:44;12.52;;;7.28;;
46815;SDS011;32787;53.316;8.670;2023-04-24T05:10:10;10.05;;;7.28;;
46815;SDS011;32787;53.316;8.670;2023-04-24T05:12:36;10.57;;;7.40;;
46815;SDS011;32787;53.316;8.670;2023-04-24T05:15:02;9.98;;;6.43;;
46815;SDS011;32787;53.316;8.670;2023-04-24T05:17:28;9.75;;;6.97;;
46815;SDS011;32787;53.316;8.670;2023-04-24T05:19:53;11.13;;;7.43;;
46815;SDS011;32787;53.316;8.670;2023-04-24T05:22:19;10.45;;;6.78;;
46815;SDS011;32787;53.316;8.670;2023-04-24T05:24:46;11.30;;;6.82;;
46815;SDS011;32787;53.316;8.670;2023-04-24T05:27:12;11.38;;;6.47;;
46815;SDS011;32787;53.316;8.670;2023-04-24T05:29:38;11.88;;;6.93;;
46815;SDS011;32787;53.316;8.670;2023-04-24T05:32:05;10.25;;;7.00;;
46815;SDS011;32787;53.316;8.670;2023-04-24T05:34:30;9.52;;;6.13;;
46815;SDS011;32787;53.316;8.670;2023-04-24T05:36:56;9.60;;;6.35;;
46815;SDS011;32787;53.316;8.670;2023-04-24T05:39:22;9.90;;;6.18;;
46815;SDS011;32787;53.316;8.670;2023-04-24T05:41:49;9.68;;;6.32;;
46815;SDS011;32787;53.316;8.670;2023-04-24T05:44:15;10.40;;;6.25;;
46815;SDS011;32787;53.316;8.670;2023-04-24T05:46:41;9.73;;;5.95;;
46815;SDS011;32787;53.316;8.670;2023-04-24T05:49:06;10.73;;;6.18;;
46815;SDS011;32787;53.316;8.670;2023-04-24T05:51:32;11.30;;;5.80;;
46815;SDS011;32787;53.316;8.670;2023-04-24T05:53:58;12.20;;;6.63;;
46815;SDS011;32787;53.316;8.670;2023-04-24T05:56:23;8.85;;;5.55;;
46815;SDS011;32787;53.316;8.670;2023-04-24T05:58:49;9.25;;;5.78;;
46815;SDS011;32787;53.316;8.670;2023-04-24T06:01:15;12.50;;;6.55;;
46815;SDS011;32787;53.316;8.670;2023-04-24T06:03:41;9.15;;;5.80;;
46815;SDS011;32787;53.316;8.670;2023-04-24T06:06:07;9.65;;;5.70;;
46815;SDS011;32787;53.316;8.670;2023-04-24T06:08:33;11.27;;;6.35;;
46815;SDS011;32787;53.316;8.670;2023-04-24T06:10:59;9.05;;;6.30;;
46815;SDS011;32787;53.316;8.670;2023-04-24T06:13:25;10.43;;;6.78;;
46815;SDS011;32787;53.316;8.670;2023-04-24T06:15:50;11.15;;;5.93;;
46815;SDS011;32787;53.316;8.670;2023-04-24T06:18:17;9.90;;;6.38;;
46815;SDS011;32787;53.316;8.670;2023-04-24T06:20:42;10.90;;;6.72;;
46815;SDS011;32787;53.316;8.670;2023-04-24T06:23:08;11.35;;;6.07;;
46815;SDS011;32787;53.316;8.670;2023-04-24T06:25:34;12.85;;;6.68;;
46815;SDS011;32787;53.316;8.670;2023-04-24T06:27:59;9.93;;;6.10;;
46815;SDS011;32787;53.316;8.670;2023-04-24T06:30:26;11.02;;;6.30;;
46815;SDS011;32787;53.316;8.670;2023-04-24T06:32:53;11.32;;;6.65;;
46815;SDS011;32787;53.316;8.670;2023-04-24T06:35:18;10.30;;;6.60;;
46815;SDS011;32787;53.316;8.670;2023-04-24T06:37:44;11.80;;;6.68;;
46815;SDS011;32787;53.316;8.670;2023-04-24T06:40:10;9.50;;;5.38;;
46815;SDS011;32787;53.316;8.670;2023-04-24T06:42:36;9.85;;;6.57;;
46815;SDS011;32787;53.316;8.670;2023-04-24T06:45:02;11.30;;;6.88;;
46815;SDS011;32787;53.316;8.670;2023-04-24T06:47:28;10.55;;;6.50;;
46815;SDS011;32787;53.316;8.670;2023-04-24T06:49:54;12.50;;;6.88;;
46815;SDS011;32787;53.316;8.670;2023-04-24T06:52:20;10.32;;;6.43;;
46815;SDS011;32787;53.316;8.670;2023-04-24T06:54:45;11.43;;;6.88;;
46815;SDS011;32787;53.316;8.670;2023-04-24T06:57:11;10.02;;;6.78;;
46815;SDS011;32787;53.316;8.670;2023-04-24T06:59:37;11.32;;;6.43;;
46815;SDS011;32787;53.316;8.670;2023-04-24T07:02:02;11.15;;;7.45;;
46815;SDS011;32787;53.316;8.670;2023-04-24T07:04:29;12.77;;;8.27;;
46815;SDS011;32787;53.316;8.670;2023-04-24T07:06:55;12.02;;;7.47;;
46815;SDS011;32787;53.316;8.670;2023-04-24T07:09:23;10.65;;;7.07;;
46815;SDS011;32787;53.316;8.670;2023-04-24T07:11:50;11.27;;;7.07;;
46815;SDS011;32787;53.316;8.670;2023-04-24T07:14:19;13.52;;;8.30;;
46815;SDS011;32787;53.316;8.670;2023-04-24T07:16:45;12.57;;;7.90;;
46815;SDS011;32787;53.316;8.670;2023-04-24T07:19:11;15.68;;;9.05;;
46815;SDS011;32787;53.316;8.670;2023-04-24T07:21:38;15.55;;;9.10;;
46815;SDS011;32787;53.316;8.670;2023-04-24T07:24:03;13.77;;;9.35;;
46815;SDS011;32787;53.316;8.670;2023-04-24T07:26:29;15.63;;;9.18;;
46815;SDS011;32787;53.316;8.670;2023-04-24T07:28:56;16.27;;;8.43;;
46815;SDS011;32787;53.316;8.670;2023-04-24T07:31:22;17.50;;;9.25;;
46815;SDS011;32787;53.316;8.670;2023-04-24T07:33:48;12.35;;;8.55;;
46815;SDS011;32787;53.316;8.670;2023-04-24T07:36:14;13.13;;;8.57;;
46815;SDS011;32787;53.316;8.670;2023-04-24T07:38:43;14.55;;;9.10;;
46815;SDS011;32787;53.316;8.670;2023-04-24T07:41:12;12.45;;;8.90;;
46815;SDS011;32787;53.316;8.670;2023-04-24T07:43:38;12.85;;;8.30;;
46815;SDS011;32787;53.316;8.670;2023-04-24T07:46:04;14.70;;;8.73;;
46815;SDS011;32787;53.316;8.670;2023-04-24T07:48:31;13.77;;;8.40;;
46815;SDS011;32787;53.316;8.670;2023-04-24T07:50:56;12.73;;;8.55;;
46815;SDS011;32787;53.316;8.670;2023-04-24T07:53:22;12.65;;;9.45;;
46815;SDS011;32787;53.316;8.670;2023-04-24T07:55:48;14.75;;;9.23;;
46815;SDS011;32787;53.316;8.670;2023-04-24T07:58:13;13.00;;;9.05;;
46815;SDS011;32787;53.316;8.670;2023-04-24T08:00:39;12.48;;;8.60;;
46815;SDS011;32787;53.316;8.670;2023-04-24T08:03:05;14.27;;;9.77;;
46815;SDS011;32787;53.316;8.670;2023-04-24T08:05:30;13.35;;;8.82;;
46815;SDS011;32787;53.316;8.670;2023-04-24T08:07:56;13.95;;;8.98;;
46815;SDS011;32787;53.316;8.670;2023-04-24T08:10:22;13.93;;;8.40;;
46815;SDS011;32787;53.316;8.670;2023-04-24T08:12:48;12.38;;;8.73;;
46815;SDS011;32787;53.316;8.670;2023-04-24T08:15:14;12.32;;;8.60;;
46815;SDS011;32787;53.316;8.670;2023-04-24T08:17:39;11.30;;;7.90;;
46815;SDS011;32787;53.316;8.670;2023-04-24T08:20:05;12.50;;;8.20;;
46815;SDS011;32787;53.316;8.670;2023-04-24T08:22:35;11.40;;;7.97;;
46815;SDS011;32787;53.316;8.670;2023-04-24T08:25:01;12.32;;;8.10;;
46815;SDS011;32787;53.316;8.670;2023-04-24T08:27:27;11.90;;;7.78;;
46815;SDS011;32787;53.316;8.670;2023-04-24T08:29:53;10.90;;;7.07;;
46815;SDS011;32787;53.316;8.670;2023-04-24T08:32:19;13.50;;;7.82;;
46815;SDS011;32787;53.316;8.670;2023-04-24T08:34:44;11.80;;;7.70;;
46815;SDS011;32787;53.316;8.670;2023-04-24T08:37:10;10.48;;;7.53;;
46815;SDS011;32787;53.316;8.670;2023-04-24T08:39:36;13.48;;;7.93;;
46815;SDS011;32787;53.316;8.670;2023-04-24T08:42:02;11.20;;;7.60;;
46815;SDS011;32787;53.316;8.670;2023-04-24T08:44:33;11.57;;;7.68;;
46815;SDS011;32787;53.316;8.670;2023-04-24T08:47:00;12.20;;;7.93;;
46815;SDS011;32787;53.316;8.670;2023-04-24T08:49:27;11.38;;;7.88;;
46815;SDS011;32787;53.316;8.670;2023-04-24T08:51:54;11.05;;;7.13;;
46815;SDS011;32787;53.316;8.670;2023-04-24T08:54:20;12.43;;;7.28;;
46815;SDS011;32787;53.316;8.670;2023-04-24T08:56:46;13.35;;;8.13;;
46815;SDS011;32787;53.316;8.670;2023-04-24T08:59:14;11.88;;;8.13;;
46815;SDS011;32787;53.316;8.670;2023-04-24T09:01:40;12.27;;;7.60;;
46815;SDS011;32787;53.316;8.670;2023-04-24T09:04:07;13.27;;;7.28;;
46815;SDS011;32787;53.316;8.670;2023-04-24T09:06:38;11.82;;;7.63;;
46815;SDS011;32787;53.316;8.670;2023-04-24T09:09:04;12.65;;;7.65;;
46815;SDS011;32787;53.316;8.670;2023-04-24T09:11:30;13.48;;;7.55;;
46815;SDS011;32787;53.316;8.670;2023-04-24T09:13:57;11.90;;;7.78;;
46815;SDS011;32787;53.316;8.670;2023-04-24T09:16:25;13.70;;;8.30;;
46815;SDS011;32787;53.316;8.670;2023-04-24T09:18:51;17.38;;;8.15;;
46815;SDS011;32787;53.316;8.670;2023-04-24T09:21:17;12.25;;;8.25;;
46815;SDS011;32787;53.316;8.670;2023-04-24T09:23:45;13.15;;;8.10;;
46815;SDS011;32787;53.316;8.670;2023-04-24T09:26:10;15.02;;;8.52;;
46815;SDS011;32787;53.316;8.670;2023-04-24T09:28:37;13.98;;;8.10;;
46815;SDS011;32787;53.316;8.670;2023-04-24T09:31:05;14.45;;;8.85;;
46815;SDS011;32787;53.316;8.670;2023-04-24T09:33:38;15.85;;;8.57;;
46815;SDS011;32787;53.316;8.670;2023-04-24T09:36:04;13.15;;;8.75;;
46815;SDS011;32787;53.316;8.670;2023-04-24T09:38:32;15.38;;;8.80;;
46815;SDS011;32787;53.316;8.670;2023-04-24T09:41:02;15.23;;;9.05;;
46815;SDS011;32787;53.316;8.670;2023-04-24T09:43:29;12.68;;;9.25;;
46815;SDS011;32787;53.316;8.670;2023-04-24T09:45:56;18.75;;;9.88;;
46815;SDS011;32787;53.316;8.670;2023-04-24T09:48:29;13.98;;;9.60;;
46815;SDS011;32787;53.316;8.670;2023-04-24T09:50:56;16.58;;;10.73;;
46815;SDS011;32787;53.316;8.670;2023-04-24T09:53:25;16.20;;;10.27;;
46815;SDS011;32787;53.316;8.670;2023-04-24T09:55:52;16.33;;;10.63;;
46815;SDS011;32787;53.316;8.670;2023-04-24T09:58:18;15.95;;;10.52;;
46815;SDS011;32787;53.316;8.670;2023-04-24T10:00:54;15.23;;;9.85;;
46815;SDS011;32787;53.316;8.670;2023-04-24T10:03:23;15.23;;;10.32;;
46815;SDS011;32787;53.316;8.670;2023-04-24T10:05:51;15.50;;;9.48;;
46815;SDS011;32787;53.316;8.670;2023-04-24T10:08:17;15.75;;;10.40;;
46815;SDS011;32787;53.316;8.670;2023-04-24T10:10:46;15.07;;;9.13;;
46815;SDS011;32787;53.316;8.670;2023-04-24T10:13:13;15.52;;;9.05;;
46815;SDS011;32787;53.316;8.670;2023-04-24T10:15:40;16.25;;;8.55;;
46815;SDS011;32787;53.316;8.670;2023-04-24T10:18:07;14.18;;;7.63;;
46815;SDS011;32787;53.316;8.670;2023-04-24T10:20:34;11.70;;;7.70;;
46815;SDS011;32787;53.316;8.670;2023-04-24T10:23:01;14.02;;;8.43;;
46815;SDS011;32787;53.316;8.670;2023-04-24T10:25:31;14.70;;;8.20;;
46815;SDS011;32787;53.316;8.670;2023-04-24T10:27:58;12.63;;;7.88;;
46815;SDS011;32787;53.316;8.670;2023-04-24T10:30:26;15.55;;;7.72;;
46815;SDS011;32787;53.316;8.670;2023-04-24T10:32:52;12.15;;;8.10;;
46815;SDS011;32787;53.316;8.670;2023-04-24T10:35:19;12.88;;;7.90;;
46815;SDS011;32787;53.316;8.670;2023-04-24T10:37:54;15.57;;;9.10;;
46815;SDS011;32787;53.316;8.670;2023-04-24T10:40:29;14.55;;;9.32;;
46815;SDS011;32787;53.316;8.670;2023-04-24T10:42:57;14.38;;;9.35;;
46815;SDS011;32787;53.316;8.670;2023-04-24T10:45:22;15.38;;;9.70;;
46815;SDS011;32787;53.316;8.670;2023-04-24T10:48:01;15.07;;;9.60;;
46815;SDS011;32787;53.316;8.670;2023-04-24T10:50:48;15.32;;;11.20;;
46815;SDS011;32787;53.316;8.670;2023-04-24T10:53:21;16.13;;;10.43;;
46815;SDS011;32787;53.316;8.670;2023-04-24T10:56:05;21.70;;;12.10;;
46815;SDS011;32787;53.316;8.670;2023-04-24T10:58:38;22.17;;;12.60;;
46815;SDS011;32787;53.316;8.670;2023-04-24T11:01:08;22.13;;;13.18;;
46815;SDS011;32787;53.316;8.670;2023-04-24T11:03:34;21.90;;;13.60;;
46815;SDS011;32787;53.316;8.670;2023-04-24T11:08:43;19.27;;;13.23;;
46815;SDS011;32787;53.316;8.670;2023-04-24T11:11:14;17.95;;;12.13;;
46815;SDS011;32787;53.316;8.670;2023-04-24T11:19:06;18.38;;;12.90;;
46815;SDS011;32787;53.316;8.670;2023-04-24T11:24:27;16.17;;;10.57;;
46815;SDS011;32787;53.316;8.670;2023-04-24T11:29:37;19.73;;;12.18;;
46815;SDS011;32787;53.316;8.670;2023-04-24T11:34:53;20.50;;;12.48;;
46815;SDS011;32787;53.316;8.670;2023-04-24T11:37:21;21.50;;;13.13;;
46815;SDS011;32787;53.316;8.670;2023-04-24T11:39:56;20.60;;;12.95;;
46815;SDS011;32787;53.316;8.670;2023-04-24T11:42:23;21.77;;;14.35;;
46815;SDS011;32787;53.316;8.670;2023-04-24T11:44:51;25.25;;;15.05;;
46815;SDS011;32787;53.316;8.670;2023-04-24T11:47:17;25.50;;;15.80;;
46815;SDS011;32787;53.316;8.670;2023-04-24T11:49:43;22.92;;;15.77;;
46815;SDS011;32787;53.316;8.670;2023-04-24T11:52:09;22.63;;;15.05;;
46815;SDS011;32787;53.316;8.670;2023-04-24T11:54:35;27.35;;;17.10;;
46815;SDS011;32787;53.316;8.670;2023-04-24T11:57:05;25.42;;;17.05;;
46815;SDS011;32787;53.316;8.670;2023-04-24T11:59:35;28.10;;;17.45;;
46815;SDS011;32787;53.316;8.670;2023-04-24T12:02:02;25.17;;;16.75;;
46815;SDS011;32787;53.316;8.670;2023-04-24T12:04:37;24.02;;;17.15;;
46815;SDS011;32787;53.316;8.670;2023-04-24T12:07:04;24.55;;;17.08;;
46815;SDS011;32787;53.316;8.670;2023-04-24T12:09:46;24.38;;;17.15;;
46815;SDS011;32787;53.316;8.670;2023-04-24T12:12:13;23.27;;;16.27;;
46815;SDS011;32787;53.316;8.670;2023-04-24T12:14:44;28.52;;;18.13;;
46815;SDS011;32787;53.316;8.670;2023-04-24T12:17:15;26.60;;;17.23;;
46815;SDS011;32787;53.316;8.670;2023-04-24T12:19:47;25.17;;;16.02;;
46815;SDS011;32787;53.316;8.670;2023-04-24T12:22:13;25.70;;;15.85;;
46815;SDS011;32787;53.316;8.670;2023-04-24T12:27:43;20.63;;;14.32;;
46815;SDS011;32787;53.316;8.670;2023-04-24T12:30:18;27.33;;;17.42;;
46815;SDS011;32787;53.316;8.670;2023-04-24T12:32:45;20.27;;;12.70;;
46815;SDS011;32787;53.316;8.670;2023-04-24T12:35:12;18.27;;;12.27;;
46815;SDS011;32787;53.316;8.670;2023-04-24T12:37:41;15.52;;;10.38;;
46815;SDS011;32787;53.316;8.670;2023-04-24T12:40:08;19.27;;;12.18;;
46815;SDS011;32787;53.316;8.670;2023-04-24T12:42:36;15.63;;;9.57;;
46815;SDS011;32787;53.316;8.670;2023-04-24T12:45:10;15.43;;;8.82;;
46815;SDS011;32787;53.316;8.670;2023-04-24T12:47:40;13.38;;;7.70;;
46815;SDS011;32787;53.316;8.670;2023-04-24T12:50:09;12.27;;;7.40;;
46815;SDS011;32787;53.316;8.670;2023-04-24T12:52:36;14.55;;;7.22;;
46815;SDS011;32787;53.316;8.670;2023-04-24T12:55:02;11.23;;;6.00;;
46815;SDS011;32787;53.316;8.670;2023-04-24T12:57:29;10.65;;;5.60;;
46815;SDS011;32787;53.316;8.670;2023-04-24T12:59:56;9.27;;;5.20;;
46815;SDS011;32787;53.316;8.670;2023-04-24T13:02:23;12.23;;;5.78;;
46815;SDS011;32787;53.316;8.670;2023-04-24T13:04:50;11.68;;;6.90;;
46815;SDS011;32787;53.316;8.670;2023-04-24T13:07:16;18.48;;;8.20;;
46815;SDS011;32787;53.316;8.670;2023-04-24T13:09:42;20.25;;;9.85;;
46815;SDS011;32787;53.316;8.670;2023-04-24T13:12:08;22.05;;;10.32;;
46815;SDS011;32787;53.316;8.670;2023-04-24T13:14:35;21.52;;;10.57;;
46815;SDS011;32787;53.316;8.670;2023-04-24T13:17:00;20.65;;;10.85;;
46815;SDS011;32787;53.316;8.670;2023-04-24T13:19:26;21.38;;;10.77;;
46815;SDS011;32787;53.316;8.670;2023-04-24T13:21:52;23.38;;;11.00;;
46815;SDS011;32787;53.316;8.670;2023-04-24T13:24:22;21.00;;;12.15;;
46815;SDS011;32787;53.316;8.670;2023-04-24T13:26:52;23.33;;;13.00;;
46815;SDS011;32787;53.316;8.670;2023-04-24T13:29:17;21.67;;;12.73;;
46815;SDS011;32787;53.316;8.670;2023-04-24T13:31:43;26.63;;;14.23;;
46815;SDS011;32787;53.316;8.670;2023-04-24T13:34:09;26.38;;;14.77;;
46815;SDS011;32787;53.316;8.670;2023-04-24T13:36:35;30.27;;;16.30;;
46815;SDS011;32787;53.316;8.670;2023-04-24T13:39:01;29.85;;;17.05;;
46815;SDS011;32787;53.316;8.670;2023-04-24T13:41:29;31.95;;;17.52;;
46815;SDS011;32787;53.316;8.670;2023-04-24T13:43:55;31.48;;;18.15;;
46815;SDS011;32787;53.316;8.670;2023-04-24T13:46:21;33.22;;;17.77;;
46815;SDS011;32787;53.316;8.670;2023-04-24T13:48:46;35.13;;;16.95;;
46815;SDS011;32787;53.316;8.670;2023-04-24T13:51:12;32.50;;;17.45;;
46815;SDS011;32787;53.316;8.670;2023-04-24T13:53:38;29.17;;;17.20;;
46815;SDS011;32787;53.316;8.670;2023-04-24T13:56:04;30.00;;;16.33;;
46815;SDS011;32787;53.316;8.670;2023-04-24T13:58:30;28.25;;;15.90;;
46815;SDS011;32787;53.316;8.670;2023-04-24T14:00:57;30.90;;;15.68;;
46815;SDS011;32787;53.316;8.670;2023-04-24T14:03:23;33.55;;;16.00;;
46815;SDS011;32787;53.316;8.670;2023-04-24T14:05:48;27.40;;;14.52;;
46815;SDS011;32787;53.316;8.670;2023-04-24T14:08:14;25.77;;;14.85;;
46815;SDS011;32787;53.316;8.670;2023-04-24T14:10:40;27.35;;;13.73;;
46815;SDS011;32787;53.316;8.670;2023-04-24T14:13:06;27.92;;;14.13;;
46815;SDS011;32787;53.316;8.670;2023-04-24T14:15:31;36.35;;;14.80;;
46815;SDS011;32787;53.316;8.670;2023-04-24T14:17:57;32.45;;;15.60;;
46815;SDS011;32787;53.316;8.670;2023-04-24T14:20:23;32.42;;;15.10;;
46815;SDS011;32787;53.316;8.670;2023-04-24T14:22:48;31.33;;;14.88;;
46815;SDS011;32787;53.316;8.670;2023-04-24T14:25:14;33.72;;;14.98;;
46815;SDS011;32787;53.316;8.670;2023-04-24T14:27:40;32.63;;;14.77;;
46815;SDS011;32787;53.316;8.670;2023-04-24T14:30:06;29.00;;;14.10;;
46815;SDS011;32787;53.316;8.670;2023-04-24T14:32:32;27.13;;;13.35;;
46815;SDS011;32787;53.316;8.670;2023-04-24T14:34:58;24.00;;;11.68;;
46815;SDS011;32787;53.316;8.670;2023-04-24T14:37:23;19.58;;;11.10;;
46815;SDS011;32787;53.316;8.670;2023-04-24T14:39:49;26.75;;;11.55;;
46815;SDS011;32787;53.316;8.670;2023-04-24T14:42:15;24.30;;;10.80;;
46815;SDS011;32787;53.316;8.670;2023-04-24T14:44:42;23.98;;;10.85;;
46815;SDS011;32787;53.316;8.670;2023-04-24T14:47:07;28.15;;;10.55;;
46815;SDS011;32787;53.316;8.670;2023-04-24T14:49:33;23.63;;;11.15;;
46815;SDS011;32787;53.316;8.670;2023-04-24T14:51:59;31.58;;;11.40;;